sensor_id;sensor_type;location;lat;lon;timestamp;P1;P2;P0
77411;PMS7003;66484;49.968;19.140;2023-04-23T00:00:16;66.00;50.00;34.00
77411;PMS7003;66484;49.968;19.140;2023-04-23T00:03:05;64.50;51.25;32.50
77411;PMS7003;66484;49.968;19.140;2023-04-23T00:05:39;59.50;46.25;28.00
77411;PMS7003;66484;49.968;19.140;2023-04-23T00:08:07;65.00;52.00;33.75
77411;PMS7003;66484;49.968;19.140;2023-04-23T00:10:36;64.75;49.00;33.25
77411;PMS7003;66484;49.968;19.140;2023-04-23T00:13:03;64.00;51.00;33.00
77411;PMS7003;66484;49.968;19.140;2023-04-23T00:15:31;70.50;54.75;35.75
77411;PMS7003;66484;49.968;19.140;2023-04-23T00:17:58;61.25;46.75;31.75
77411;PMS7003;66484;49.968;19.140;2023-04-23T00:20:26;47.00;40.50;30.75
77411;PMS7003;66484;49.968;19.140;2023-04-23T00:22:53;61.50;48.75;33.25
77411;PMS7003;66484;49.968;19.140;2023-04-23T00:25:20;60.50;50.00;34.75
77411;PMS7003;66484;49.968;19.140;2023-04-23T00:27:48;60.50;48.75;35.75
77411;PMS7003;66484;49.968;19.140;2023-04-23T00:30:15;64.25;50.25;34.00
77411;PMS7003;66484;49.968;19.140;2023-04-23T00:32:44;61.25;49.50;33.00
77411;PMS7003;66484;49.968;19.140;2023-04-23T00:35:12;71.25;54.75;33.75
77411;PMS7003;66484;49.968;19.140;2023-04-23T00:37:39;59.00;47.50;33.00
77411;PMS7003;66484;49.968;19.140;2023-04-23T00:40:06;52.25;40.50;23.25
77411;PMS7003;66484;49.968;19.140;2023-04-23T00:42:34;57.50;47.00;32.25
77411;PMS7003;66484;49.968;19.140;2023-04-23T00:45:02;59.75;49.50;33.50
77411;PMS7003;66484;49.968;19.140;2023-04-23T00:47:29;67.75;54.75;34.75
77411;PMS7003;66484;49.968;19.140;2023-04-23T00:49:58;56.25;47.25;32.25
77411;PMS7003;66484;49.968;19.140;2023-04-23T00:52:25;65.75;52.50;36.00
77411;PMS7003;66484;49.968;19.140;2023-04-23T00:54:54;63.75;49.50;34.00
77411;PMS7003;66484;49.968;19.140;2023-04-23T00:57:21;66.00;52.00;32.50
77411;PMS7003;66484;49.968;19.140;2023-04-23T00:59:49;59.50;49.25;31.25
77411;PMS7003;66484;49.968;19.140;2023-04-23T01:02:16;63.75;50.25;33.50
77411;PMS7003;66484;49.968;19.140;2023-04-23T01:04:44;56.00;46.25;31.50
77411;PMS7003;66484;49.968;19.140;2023-04-23T01:07:12;64.25;50.25;34.00
77411;PMS7003;66484;49.968;19.140;2023-04-23T01:09:39;67.25;52.75;34.00
77411;PMS7003;66484;49.968;19.140;2023-04-23T01:12:07;67.25;54.50;34.75
77411;PMS7003;66484;49.968;19.140;2023-04-23T01:14:36;100.50;93.50;60.25
77411;PMS7003;66484;49.968;19.140;2023-04-23T01:17:03;68.50;54.75;34.50
77411;PMS7003;66484;49.968;19.140;2023-04-23T01:19:31;89.00;79.75;56.00
77411;PMS7003;66484;49.968;19.140;2023-04-23T01:21:59;72.25;56.75;37.00
77411;PMS7003;66484;49.968;19.140;2023-04-23T01:24:28;85.25;70.75;48.00
77411;PMS7003;66484;49.968;19.140;2023-04-23T01:26:55;121.50;114.00;71.75
77411;PMS7003;66484;49.968;19.140;2023-04-23T01:29:25;69.75;55.50;36.50
77411;PMS7003;66484;49.968;19.140;2023-04-23T01:31:52;61.50;50.50;33.50
77411;PMS7003;66484;49.968;19.140;2023-04-23T01:34:20;69.00;53.00;36.50
77411;PMS7003;66484;49.968;19.140;2023-04-23T01:36:48;67.75;54.25;36.50
77411;PMS7003;66484;49.968;19.140;2023-04-23T01:39:16;62.50;50.00;35.50
77411;PMS7003;66484;49.968;19.140;2023-04-23T01:41:43;67.50;52.25;35.00
77411;PMS7003;66484;49.968;19.140;2023-04-23T01:44:11;60.25;49.50;33.00
77411;PMS7003;66484;49.968;19.140;2023-04-23T01:46:38;64.50;50.00;33.25
77411;PMS7003;66484;49.968;19.140;2023-04-23T01:49:06;55.00;46.00;32.00
77411;PMS7003;66484;49.968;19.140;2023-04-23T01:51:33;57.00;45.75;32.00
77411;PMS7003;66484;49.968;19.140;2023-04-23T01:54:01;59.25;43.25;30.25
77411;PMS7003;66484;49.968;19.140;2023-04-23T01:56:28;63.25;48.50;33.00
77411;PMS7003;66484;49.968;19.140;2023-04-23T01:58:56;60.50;48.75;32.00
77411;PMS7003;66484;49.968;19.140;2023-04-23T02:01:23;61.25;50.00;33.75
77411;PMS7003;66484;49.968;19.140;2023-04-23T02:03:51;56.50;47.25;30.50
77411;PMS7003;66484;49.968;19.140;2023-04-23T02:06:18;53.75;43.25;28.00
77411;PMS7003;66484;49.968;19.140;2023-04-23T02:08:45;52.50;45.25;31.00
77411;PMS7003;66484;49.968;19.140;2023-04-23T02:11:12;52.50;42.00;27.25
77411;PMS7003;66484;49.968;19.140;2023-04-23T02:13:40;55.25;46.00;31.50
77411;PMS7003;66484;49.968;19.140;2023-04-23T02:16:07;56.25;46.50;30.75
77411;PMS7003;66484;49.968;19.140;2023-04-23T02:18:35;60.75;47.25;33.00
77411;PMS7003;66484;49.968;19.140;2023-04-23T02:21:02;62.25;49.50;33.25
77411;PMS7003;66484;49.968;19.140;2023-04-23T02:23:30;54.75;44.50;31.25
77411;PMS7003;66484;49.968;19.140;2023-04-23T02:25:57;47.75;41.00;27.00
77411;PMS7003;66484;49.968;19.140;2023-04-23T02:28:24;53.75;44.00;30.00
77411;PMS7003;66484;49.968;19.140;2023-04-23T02:30:51;54.00;44.75;28.50
77411;PMS7003;66484;49.968;19.140;2023-04-23T02:33:19;57.25;44.25;28.75
77411;PMS7003;66484;49.968;19.140;2023-04-23T02:35:47;62.50;48.00;33.00
77411;PMS7003;66484;49.968;19.140;2023-04-23T02:38:15;59.00;48.75;32.00
77411;PMS7003;66484;49.968;19.140;2023-04-23T02:40:42;58.50;48.00;31.75
77411;PMS7003;66484;49.968;19.140;2023-04-23T02:43:09;58.75;47.00;33.00
77411;PMS7003;66484;49.968;19.140;2023-04-23T02:45:37;61.50;48.25;32.00
77411;PMS7003;66484;49.968;19.140;2023-04-23T02:48:04;58.75;47.25;32.00
77411;PMS7003;66484;49.968;19.140;2023-04-23T02:50:32;60.25;48.00;31.75
77411;PMS7003;66484;49.968;19.140;2023-04-23T02:52:59;55.25;45.50;31.00
77411;PMS7003;66484;49.968;19.140;2023-04-23T02:55:27;58.50;47.75;32.25
77411;PMS7003;66484;49.968;19.140;2023-04-23T02:57:58;61.00;45.25;30.00
77411;PMS7003;66484;49.968;19.140;2023-04-23T03:00:26;58.75;47.75;32.00
77411;PMS7003;66484;49.968;19.140;2023-04-23T03:02:54;55.75;46.25;31.00
77411;PMS7003;66484;49.968;19.140;2023-04-23T03:05:21;49.25;40.75;27.75
77411;PMS7003;66484;49.968;19.140;2023-04-23T03:07:48;57.00;47.75;32.75
77411;PMS7003;66484;49.968;19.140;2023-04-23T03:10:16;60.00;48.00;32.75
77411;PMS7003;66484;49.968;19.140;2023-04-23T03:12:43;58.75;47.50;33.00
77411;PMS7003;66484;49.968;19.140;2023-04-23T03:15:10;63.50;52.00;34.25
77411;PMS7003;66484;49.968;19.140;2023-04-23T03:17:38;66.75;53.00;35.00
77411;PMS7003;66484;49.968;19.140;2023-04-23T03:20:06;60.75;48.50;33.00
77411;PMS7003;66484;49.968;19.140;2023-04-23T03:22:36;51.50;44.75;30.00
77411;PMS7003;66484;49.968;19.140;2023-04-23T03:25:03;52.75;44.00;29.50
77411;PMS7003;66484;49.968;19.140;2023-04-23T03:27:31;48.00;39.50;24.75
77411;PMS7003;66484;49.968;19.140;2023-04-23T03:29:58;48.50;36.00;30.25
77411;PMS7003;66484;49.968;19.140;2023-04-23T03:32:26;59.75;50.75;34.25
77411;PMS7003;66484;49.968;19.140;2023-04-23T03:34:54;60.50;49.50;34.00
77411;PMS7003;66484;49.968;19.140;2023-04-23T03:37:21;64.00;51.00;34.00
77411;PMS7003;66484;49.968;19.140;2023-04-23T03:39:48;66.50;52.75;34.00
77411;PMS7003;66484;49.968;19.140;2023-04-23T03:42:17;63.25;49.25;32.25
77411;PMS7003;66484;49.968;19.140;2023-04-23T03:44:44;63.00;50.00;33.00
77411;PMS7003;66484;49.968;19.140;2023-04-23T03:47:12;53.25;41.75;31.00
77411;PMS7003;66484;49.968;19.140;2023-04-23T03:49:38;68.75;52.25;32.25
77411;PMS7003;66484;49.968;19.140;2023-04-23T03:52:06;61.50;45.75;32.00
77411;PMS7003;66484;49.968;19.140;2023-04-23T03:54:33;59.75;47.00;33.50
77411;PMS7003;66484;49.968;19.140;2023-04-23T03:57:01;56.50;45.25;30.50
77411;PMS7003;66484;49.968;19.140;2023-04-23T03:59:28;61.50;47.25;33.50
77411;PMS7003;66484;49.968;19.140;2023-04-23T04:01:55;60.00;48.75;33.00
77411;PMS7003;66484;49.968;19.140;2023-04-23T04:04:24;56.25;47.00;29.50
77411;PMS7003;66484;49.968;19.140;2023-04-23T04:06:52;55.75;45.50;31.75
77411;PMS7003;66484;49.968;19.140;2023-04-23T04:09:19;39.25;33.50;18.75
77411;PMS7003;66484;49.968;19.140;2023-04-23T04:11:46;53.75;44.75;32.00
77411;PMS7003;66484;49.968;19.140;2023-04-23T04:14:13;58.25;45.50;32.00
77411;PMS7003;66484;49.968;19.140;2023-04-23T04:16:41;54.25;45.25;31.00
77411;PMS7003;66484;49.968;19.140;2023-04-23T04:19:08;53.75;41.75;28.25
77411;PMS7003;66484;49.968;19.140;2023-04-23T04:21:36;56.25;45.00;31.00
77411;PMS7003;66484;49.968;19.140;2023-04-23T04:24:03;64.00;49.50;33.25
77411;PMS7003;66484;49.968;19.140;2023-04-23T04:26:31;57.75;47.25;32.00
77411;PMS7003;66484;49.968;19.140;2023-04-23T04:28:58;54.25;45.00;31.50
77411;PMS7003;66484;49.968;19.140;2023-04-23T04:31:27;61.50;51.50;32.50
77411;PMS7003;66484;49.968;19.140;2023-04-23T04:33:54;62.25;49.00;33.00
77411;PMS7003;66484;49.968;19.140;2023-04-23T04:36:22;57.25;47.25;31.75
77411;PMS7003;66484;49.968;19.140;2023-04-23T04:38:54;68.75;53.25;34.50
77411;PMS7003;66484;49.968;19.140;2023-04-23T04:41:24;67.00;54.00;36.00
77411;PMS7003;66484;49.968;19.140;2023-04-23T04:43:51;60.25;50.25;33.50
77411;PMS7003;66484;49.968;19.140;2023-04-23T04:46:20;69.00;54.25;35.75
77411;PMS7003;66484;49.968;19.140;2023-04-23T04:49:00;65.75;52.50;36.25
77411;PMS7003;66484;49.968;19.140;2023-04-23T04:51:27;71.50;57.50;38.25
77411;PMS7003;66484;49.968;19.140;2023-04-23T04:53:54;72.00;58.00;36.25
77411;PMS7003;66484;49.968;19.140;2023-04-23T04:56:22;71.25;56.75;38.00
77411;PMS7003;66484;49.968;19.140;2023-04-23T04:58:52;74.50;59.75;38.50
77411;PMS7003;66484;49.968;19.140;2023-04-23T05:01:20;73.75;57.25;38.25
77411;PMS7003;66484;49.968;19.140;2023-04-23T05:03:50;76.00;57.75;38.50
77411;PMS7003;66484;49.968;19.140;2023-04-23T05:06:18;72.00;56.25;38.25
77411;PMS7003;66484;49.968;19.140;2023-04-23T05:08:46;72.50;55.50;37.75
77411;PMS7003;66484;49.968;19.140;2023-04-23T05:11:15;68.25;55.75;36.25
77411;PMS7003;66484;49.968;19.140;2023-04-23T05:13:43;71.00;55.75;36.75
77411;PMS7003;66484;49.968;19.140;2023-04-23T05:16:10;69.50;53.25;35.25
77411;PMS7003;66484;49.968;19.140;2023-04-23T05:18:38;76.25;58.25;37.75
77411;PMS7003;66484;49.968;19.140;2023-04-23T05:21:06;60.75;50.00;32.00
77411;PMS7003;66484;49.968;19.140;2023-04-23T05:23:34;71.00;53.00;36.00
77411;PMS7003;66484;49.968;19.140;2023-04-23T05:26:02;71.50;57.75;37.00
77411;PMS7003;66484;49.968;19.140;2023-04-23T05:28:29;62.00;51.00;33.00
77411;PMS7003;66484;49.968;19.140;2023-04-23T05:30:57;65.50;53.75;36.50
77411;PMS7003;66484;49.968;19.140;2023-04-23T05:33:25;72.50;57.75;36.75
77411;PMS7003;66484;49.968;19.140;2023-04-23T05:36:02;61.00;51.00;33.00
77411;PMS7003;66484;49.968;19.140;2023-04-23T05:38:29;64.50;51.75;34.00
77411;PMS7003;66484;49.968;19.140;2023-04-23T05:40:57;61.00;50.50;31.75
77411;PMS7003;66484;49.968;19.140;2023-04-23T05:43:24;53.00;44.00;30.00
77411;PMS7003;66484;49.968;19.140;2023-04-23T05:45:51;29.50;27.75;25.50
77411;PMS7003;66484;49.968;19.140;2023-04-23T05:48:18;60.25;48.25;32.00
77411;PMS7003;66484;49.968;19.140;2023-04-23T05:50:46;51.00;40.75;27.00
77411;PMS7003;66484;49.968;19.140;2023-04-23T05:53:15;41.00;36.00;24.00
77411;PMS7003;66484;49.968;19.140;2023-04-23T05:55:43;53.50;43.00;28.50
77411;PMS7003;66484;49.968;19.140;2023-04-23T05:58:10;50.25;42.00;30.25
77411;PMS7003;66484;49.968;19.140;2023-04-23T06:00:38;62.75;51.50;32.00
77411;PMS7003;66484;49.968;19.140;2023-04-23T06:03:06;58.00;48.75;32.25
77411;PMS7003;66484;49.968;19.140;2023-04-23T06:05:34;58.50;47.75;31.00
77411;PMS7003;66484;49.968;19.140;2023-04-23T06:08:03;59.50;47.00;31.50
77411;PMS7003;66484;49.968;19.140;2023-04-23T06:10:31;60.50;48.00;32.00
77411;PMS7003;66484;49.968;19.140;2023-04-23T06:12:58;52.75;43.50;29.25
77411;PMS7003;66484;49.968;19.140;2023-04-23T06:15:26;56.50;47.00;32.00
77411;PMS7003;66484;49.968;19.140;2023-04-23T06:17:54;58.50;49.00;32.00
77411;PMS7003;66484;49.968;19.140;2023-04-23T06:20:22;57.00;45.00;29.25
77411;PMS7003;66484;49.968;19.140;2023-04-23T06:22:49;59.75;48.00;31.00
77411;PMS7003;66484;49.968;19.140;2023-04-23T06:25:17;52.67;43.67;27.33
77411;PMS7003;66484;49.968;19.140;2023-04-23T06:27:44;43.67;38.00;27.00
77411;PMS7003;66484;49.968;19.140;2023-04-23T06:30:12;56.00;43.67;28.67
77411;PMS7003;66484;49.968;19.140;2023-04-23T06:32:39;52.33;43.00;28.33
77411;PMS7003;66484;49.968;19.140;2023-04-23T06:35:07;48.33;41.00;29.33
77411;PMS7003;66484;49.968;19.140;2023-04-23T06:37:35;45.00;38.00;26.00
77411;PMS7003;66484;49.968;19.140;2023-04-23T06:40:02;41.33;36.33;25.00
77411;PMS7003;66484;49.968;19.140;2023-04-23T06:42:29;42.67;36.00;24.00
77411;PMS7003;66484;49.968;19.140;2023-04-23T06:44:57;37.67;33.33;24.00
77411;PMS7003;66484;49.968;19.140;2023-04-23T06:47:25;33.33;28.67;20.67
77411;PMS7003;66484;49.968;19.140;2023-04-23T06:49:52;41.33;36.67;25.00
77411;PMS7003;66484;49.968;19.140;2023-04-23T06:52:19;23.67;21.33;16.00
77411;PMS7003;66484;49.968;19.140;2023-04-23T06:54:46;34.33;32.33;21.00
77411;PMS7003;66484;49.968;19.140;2023-04-23T06:57:14;28.33;26.00;21.00
77411;PMS7003;66484;49.968;19.140;2023-04-23T06:59:41;25.67;24.33;15.67
77411;PMS7003;66484;49.968;19.140;2023-04-23T07:02:09;25.67;24.33;21.00
77411;PMS7003;66484;49.968;19.140;2023-04-23T07:04:37;24.67;22.67;17.00
77411;PMS7003;66484;49.968;19.140;2023-04-23T07:07:05;24.67;24.67;19.33
77411;PMS7003;66484;49.968;19.140;2023-04-23T07:09:32;16.67;16.67;15.67
77411;PMS7003;66484;49.968;19.140;2023-04-23T07:11:59;22.33;22.33;16.00
77411;PMS7003;66484;49.968;19.140;2023-04-23T07:14:28;23.67;22.33;16.00
77411;PMS7003;66484;49.968;19.140;2023-04-23T07:16:55;23.33;22.67;17.67
77411;PMS7003;66484;49.968;19.140;2023-04-23T07:19:23;22.33;22.00;16.00
77411;PMS7003;66484;49.968;19.140;2023-04-23T07:21:51;24.50;22.25;16.75
77411;PMS7003;66484;49.968;19.140;2023-04-23T07:24:19;23.50;22.00;17.25
77411;PMS7003;66484;49.968;19.140;2023-04-23T07:26:47;19.50;17.50;14.00
77411;PMS7003;66484;49.968;19.140;2023-04-23T07:29:14;21.75;17.50;13.75
77411;PMS7003;66484;49.968;19.140;2023-04-23T07:31:42;12.00;12.00;8.50
77411;PMS7003;66484;49.968;19.140;2023-04-23T07:34:10;11.50;11.50;9.00
77411;PMS7003;66484;49.968;19.140;2023-04-23T07:36:38;11.00;10.00;9.00
77411;PMS7003;66484;49.968;19.140;2023-04-23T07:39:06;11.25;10.25;8.00
77411;PMS7003;66484;49.968;19.140;2023-04-23T07:41:33;10.50;9.25;7.00
77411;PMS7003;66484;49.968;19.140;2023-04-23T07:44:01;11.25;10.25;9.25
77411;PMS7003;66484;49.968;19.140;2023-04-23T07:46:28;10.25;9.75;7.75
77411;PMS7003;66484;49.968;19.140;2023-04-23T07:48:56;13.00;13.00;10.00
77411;PMS7003;66484;49.968;19.140;2023-04-23T07:51:25;8.75;8.75;7.75
77411;PMS7003;66484;49.968;19.140;2023-04-23T07:53:52;7.25;7.25;6.75
77411;PMS7003;66484;49.968;19.140;2023-04-23T07:56:20;13.25;12.25;9.75
77411;PMS7003;66484;49.968;19.140;2023-04-23T07:58:48;15.50;12.00;8.50
77411;PMS7003;66484;49.968;19.140;2023-04-23T08:01:15;10.00;10.00;8.00
77411;PMS7003;66484;49.968;19.140;2023-04-23T08:03:43;9.50;9.50;7.75
77411;PMS7003;66484;49.968;19.140;2023-04-23T08:06:10;11.50;9.50;7.25
77411;PMS7003;66484;49.968;19.140;2023-04-23T08:08:38;12.50;10.50;8.25
77411;PMS7003;66484;49.968;19.140;2023-04-23T08:11:05;12.75;10.75;8.00
77411;PMS7003;66484;49.968;19.140;2023-04-23T08:13:33;9.50;9.50;7.50
77411;PMS7003;66484;49.968;19.140;2023-04-23T08:16:00;10.00;10.00;9.00
77411;PMS7003;66484;49.968;19.140;2023-04-23T08:18:28;10.50;9.50;8.00
77411;PMS7003;66484;49.968;19.140;2023-04-23T08:20:55;12.50;11.75;9.00
77411;PMS7003;66484;49.968;19.140;2023-04-23T08:23:23;15.25;13.25;9.75
77411;PMS7003;66484;49.968;19.140;2023-04-23T08:25:50;10.75;10.75;8.50
77411;PMS7003;66484;49.968;19.140;2023-04-23T08:28:18;14.25;10.50;9.00
77411;PMS7003;66484;49.968;19.140;2023-04-23T08:30:45;10.50;10.50;7.75
77411;PMS7003;66484;49.968;19.140;2023-04-23T08:33:13;9.25;9.25;8.75
77411;PMS7003;66484;49.968;19.140;2023-04-23T08:35:40;7.25;6.00;5.25
77411;PMS7003;66484;49.968;19.140;2023-04-23T08:38:08;7.75;6.75;4.50
77411;PMS7003;66484;49.968;19.140;2023-04-23T08:40:35;10.00;9.25;7.50
77411;PMS7003;66484;49.968;19.140;2023-04-23T08:43:06;7.50;6.00;5.25
77411;PMS7003;66484;49.968;19.140;2023-04-23T08:45:38;10.00;10.00;7.50
77411;PMS7003;66484;49.968;19.140;2023-04-23T08:48:07;10.00;8.25;6.50
77411;PMS7003;66484;49.968;19.140;2023-04-23T08:50:36;8.75;7.50;7.00
77411;PMS7003;66484;49.968;19.140;2023-04-23T08:53:04;10.00;10.00;8.00
77411;PMS7003;66484;49.968;19.140;2023-04-23T08:55:32;9.75;9.75;7.00
77411;PMS7003;66484;49.968;19.140;2023-04-23T08:58:01;10.25;10.25;9.25
77411;PMS7003;66484;49.968;19.140;2023-04-23T09:00:32;8.00;8.00;7.00
77411;PMS7003;66484;49.968;19.140;2023-04-23T09:03:02;6.50;6.25;5.00
77411;PMS7003;66484;49.968;19.140;2023-04-23T09:05:30;9.50;9.50;6.25
77411;PMS7003;66484;49.968;19.140;2023-04-23T09:07:58;6.00;6.00;5.50
77411;PMS7003;66484;49.968;19.140;2023-04-23T09:10:25;7.00;7.00;6.00
77411;PMS7003;66484;49.968;19.140;2023-04-23T09:12:53;0.50;0.00;0.00
77411;PMS7003;66484;49.968;19.140;2023-04-23T09:15:20;6.00;6.00;4.75
77411;PMS7003;66484;49.968;19.140;2023-04-23T09:17:48;8.50;8.50;6.75
77411;PMS7003;66484;49.968;19.140;2023-04-23T09:20:15;7.00;7.00;6.00
77411;PMS7003;66484;49.968;19.140;2023-04-23T09:22:44;8.75;8.00;6.50
77411;PMS7003;66484;49.968;19.140;2023-04-23T09:25:17;8.00;8.00;5.75
77411;PMS7003;66484;49.968;19.140;2023-04-23T09:27:46;6.25;6.00;5.00
77411;PMS7003;66484;49.968;19.140;2023-04-23T09:30:14;8.25;8.25;6.50
77411;PMS7003;66484;49.968;19.140;2023-04-23T09:32:43;8.75;8.75;7.00
77411;PMS7003;66484;49.968;19.140;2023-04-23T09:35:15;9.75;7.50;6.00
77411;PMS7003;66484;49.968;19.140;2023-04-23T09:37:49;7.25;7.25;6.00
77411;PMS7003;66484;49.968;19.140;2023-04-23T09:40:21;10.00;7.50;5.00
77411;PMS7003;66484;49.968;19.140;2023-04-23T09:42:50;5.25;5.25;5.00
77411;PMS7003;66484;49.968;19.140;2023-04-23T09:45:21;6.00;5.75;4.75
77411;PMS7003;66484;49.968;19.140;2023-04-23T09:47:52;11.75;8.50;6.00
77411;PMS7003;66484;49.968;19.140;2023-04-23T09:50:32;6.25;5.25;4.75
77411;PMS7003;66484;49.968;19.140;2023-04-23T09:53:05;6.75;6.75;5.00
77411;PMS7003;66484;49.968;19.140;2023-04-23T09:55:34;6.00;5.00;4.00
77411;PMS7003;66484;49.968;19.140;2023-04-23T09:58:10;7.00;7.00;6.00
77411;PMS7003;66484;49.968;19.140;2023-04-23T10:00:39;5.00;5.00;4.50
77411;PMS7003;66484;49.968;19.140;2023-04-23T10:03:07;8.00;8.00;6.75
77411;PMS7003;66484;49.968;19.140;2023-04-23T10:05:39;7.00;5.25;4.00
77411;PMS7003;66484;49.968;19.140;2023-04-23T10:08:11;5.75;5.75;5.00
77411;PMS7003;66484;49.968;19.140;2023-04-23T10:10:40;12.00;10.00;7.00
77411;PMS7003;66484;49.968;19.140;2023-04-23T10:13:23;8.50;8.50;7.25
77411;PMS7003;66484;49.968;19.140;2023-04-23T10:15:51;8.25;7.25;6.00
77411;PMS7003;66484;49.968;19.140;2023-04-23T10:18:19;4.00;4.00;4.00
77411;PMS7003;66484;49.968;19.140;2023-04-23T10:20:47;6.75;6.75;6.25
77411;PMS7003;66484;49.968;19.140;2023-04-23T10:23:16;5.75;5.75;4.50
77411;PMS7003;66484;49.968;19.140;2023-04-23T10:25:46;6.00;6.00;5.00
77411;PMS7003;66484;49.968;19.140;2023-04-23T10:28:14;7.75;7.75;5.50
77411;PMS7003;66484;49.968;19.140;2023-04-23T10:30:43;6.00;5.75;4.75
77411;PMS7003;66484;49.968;19.140;2023-04-23T10:33:11;8.00;6.25;5.00
77411;PMS7003;66484;49.968;19.140;2023-04-23T10:35:55;7.00;7.00;5.00
77411;PMS7003;66484;49.968;19.140;2023-04-23T10:38:22;6.50;6.50;5.00
77411;PMS7003;66484;49.968;19.140;2023-04-23T10:40:54;5.50;5.50;5.50
77411;PMS7003;66484;49.968;19.140;2023-04-23T10:43:23;6.75;5.00;4.50
77411;PMS7003;66484;49.968;19.140;2023-04-23T10:45:50;5.00;5.00;3.25
77411;PMS7003;66484;49.968;19.140;2023-04-23T10:48:19;4.75;4.00;3.00
77411;PMS7003;66484;49.968;19.140;2023-04-23T10:50:47;6.50;6.50;5.75
77411;PMS7003;66484;49.968;19.140;2023-04-23T10:53:44;6.00;6.00;4.75
77411;PMS7003;66484;49.968;19.140;2023-04-23T10:56:11;8.00;5.75;5.00
77411;PMS7003;66484;49.968;19.140;2023-04-23T10:58:48;7.50;7.50;6.75
77411;PMS7003;66484;49.968;19.140;2023-04-23T11:01:18;8.00;8.00;6.00
77411;PMS7003;66484;49.968;19.140;2023-04-23T11:03:49;9.00;8.00;7.00
77411;PMS7003;66484;49.968;19.140;2023-04-23T11:09:30;7.75;7.75;5.25
77411;PMS7003;66484;49.968;19.140;2023-04-23T11:12:00;9.00;8.00;6.00
77411;PMS7003;66484;49.968;19.140;2023-04-23T11:14:36;6.25;5.75;4.25
77411;PMS7003;66484;49.968;19.140;2023-04-23T11:17:03;8.00;6.00;5.75
77411;PMS7003;66484;49.968;19.140;2023-04-23T11:19:35;6.25;6.25;5.50
77411;PMS7003;66484;49.968;19.140;2023-04-23T11:22:11;5.50;5.50;5.00
77411;PMS7003;66484;49.968;19.140;2023-04-23T11:24:41;6.50;6.50;6.00
77411;PMS7003;66484;49.968;19.140;2023-04-23T11:27:13;8.75;6.50;5.00
77411;PMS7003;66484;49.968;19.140;2023-04-23T11:29:44;6.00;6.00;5.00
77411;PMS7003;66484;49.968;19.140;2023-04-23T11:32:12;10.00;8.25;6.00
77411;PMS7003;66484;49.968;19.140;2023-04-23T11:34:42;10.25;7.25;6.25
77411;PMS7003;66484;49.968;19.140;2023-04-23T11:37:12;5.25;4.75;3.50
77411;PMS7003;66484;49.968;19.140;2023-04-23T11:39:41;7.00;7.00;6.25
77411;PMS7003;66484;49.968;19.140;2023-04-23T11:42:10;6.00;6.00;5.00
77411;PMS7003;66484;49.968;19.140;2023-04-23T11:44:39;6.75;6.75;5.75
77411;PMS7003;66484;49.968;19.140;2023-04-23T11:47:08;6.50;6.50;6.00
77411;PMS7003;66484;49.968;19.140;2023-04-23T11:49:40;6.25;6.25;5.25
77411;PMS7003;66484;49.968;19.140;2023-04-23T11:52:09;6.00;6.00;5.00
77411;PMS7003;66484;49.968;19.140;2023-04-23T11:54:40;6.00;6.00;5.00
77411;PMS7003;66484;49.968;19.140;2023-04-23T11:57:07;5.25;5.00;4.75
77411;PMS7003;66484;49.968;19.140;2023-04-23T11:59:36;7.25;7.25;6.00
77411;PMS7003;66484;49.968;19.140;2023-04-23T12:02:03;6.50;6.50;5.75
77411;PMS7003;66484;49.968;19.140;2023-04-23T12:04:31;5.00;5.00;4.25
77411;PMS7003;66484;49.968;19.140;2023-04-23T12:06:58;6.25;4.75;2.50
77411;PMS7003;66484;49.968;19.140;2023-04-23T12:09:27;6.75;6.50;5.00
77411;PMS7003;66484;49.968;19.140;2023-04-23T12:11:55;6.25;5.00;5.00
77411;PMS7003;66484;49.968;19.140;2023-04-23T12:14:28;6.00;6.00;4.25
77411;PMS7003;66484;49.968;19.140;2023-04-23T12:16:56;6.00;6.00;5.00
77411;PMS7003;66484;49.968;19.140;2023-04-23T12:19:28;6.75;6.75;5.75
77411;PMS7003;66484;49.968;19.140;2023-04-23T12:21:58;4.50;4.50;4.25
77411;PMS7003;66484;49.968;19.140;2023-04-23T12:24:28;6.00;6.00;4.25
77411;PMS7003;66484;49.968;19.140;2023-04-23T12:26:58;5.00;5.00;4.50
77411;PMS7003;66484;49.968;19.140;2023-04-23T12:29:29;9.00;7.50;5.00
77411;PMS7003;66484;49.968;19.140;2023-04-23T12:31:57;4.00;4.00;4.00
77411;PMS7003;66484;49.968;19.140;2023-04-23T12:34:26;4.00;4.00;3.00
77411;PMS7003;66484;49.968;19.140;2023-04-23T12:36:54;5.00;5.00;5.00
77411;PMS7003;66484;49.968;19.140;2023-04-23T12:41:54;5.00;5.00;4.75
77411;PMS7003;66484;49.968;19.140;2023-04-23T12:44:31;5.50;5.50;4.75
77411;PMS7003;66484;49.968;19.140;2023-04-23T12:47:03;8.50;8.00;6.50
77411;PMS7003;66484;49.968;19.140;2023-04-23T12:49:35;8.00;8.00;6.00
77411;PMS7003;66484;49.968;19.140;2023-04-23T12:52:06;7.00;7.00;4.00
77411;PMS7003;66484;49.968;19.140;2023-04-23T12:54:37;7.50;7.50;6.75
77411;PMS7003;66484;49.968;19.140;2023-04-23T12:57:05;6.00;4.50;4.00
77411;PMS7003;66484;49.968;19.140;2023-04-23T12:59:34;4.75;4.50;4.50
77411;PMS7003;66484;49.968;19.140;2023-04-23T13:02:02;3.75;3.75;3.50
77411;PMS7003;66484;49.968;19.140;2023-04-23T13:04:31;7.25;7.25;6.25
77411;PMS7003;66484;49.968;19.140;2023-04-23T13:06:59;7.50;6.00;5.00
77411;PMS7003;66484;49.968;19.140;2023-04-23T13:09:27;5.50;5.50;4.50
77411;PMS7003;66484;49.968;19.140;2023-04-23T13:11:54;7.25;7.25;6.25
77411;PMS7003;66484;49.968;19.140;2023-04-23T13:14:22;6.50;6.50;5.50
77411;PMS7003;66484;49.968;19.140;2023-04-23T13:16:49;8.75;7.50;6.00
77411;PMS7003;66484;49.968;19.140;2023-04-23T13:19:16;6.25;6.00;5.00
77411;PMS7003;66484;49.968;19.140;2023-04-23T13:21:44;4.50;4.50;3.75
77411;PMS7003;66484;49.968;19.140;2023-04-23T13:24:11;7.00;7.00;6.25
77411;PMS7003;66484;49.968;19.140;2023-04-23T13:26:38;7.00;6.00;4.50
77411;PMS7003;66484;49.968;19.140;2023-04-23T13:29:06;10.25;9.00;7.25
77411;PMS7003;66484;49.968;19.140;2023-04-23T13:31:33;4.50;4.50;3.50
77411;PMS7003;66484;49.968;19.140;2023-04-23T13:34:01;7.00;7.00;5.00
77411;PMS7003;66484;49.968;19.140;2023-04-23T13:36:28;7.50;5.00;4.00
77411;PMS7003;66484;49.968;19.140;2023-04-23T13:38:56;6.50;6.50;5.00
77411;PMS7003;66484;49.968;19.140;2023-04-23T13:41:23;8.25;7.75;6.00
77411;PMS7003;66484;49.968;19.140;2023-04-23T13:43:51;5.00;5.00;4.00
77411;PMS7003;66484;49.968;19.140;2023-04-23T13:46:18;8.00;8.00;5.75
77411;PMS7003;66484;49.968;19.140;2023-04-23T13:48:46;8.75;5.25;4.25
77411;PMS7003;66484;49.968;19.140;2023-04-23T13:51:13;5.75;5.75;4.75
77411;PMS7003;66484;49.968;19.140;2023-04-23T13:54:00;8.00;8.00;5.50
77411;PMS7003;66484;49.968;19.140;2023-04-23T13:56:28;8.00;8.00;5.75
77411;PMS7003;66484;49.968;19.140;2023-04-23T13:58:56;5.75;5.75;5.00
77411;PMS7003;66484;49.968;19.140;2023-04-23T14:01:44;10.50;7.50;6.50